createdAt,value
2018-12-12T00:01:06.921Z,4.30
2018-12-12T00:03:35.292Z,4.60
2018-12-12T00:06:05.080Z,4.10
2018-12-12T00:08:33.503Z,3.53
2018-12-12T00:11:04.360Z,4.50
2018-12-12T00:13:32.764Z,4.10
2018-12-12T00:16:03.688Z,4.13
2018-12-12T00:18:32.096Z,3.93
2018-12-12T00:21:00.472Z,4.80
2018-12-12T00:23:28.872Z,4.30
2018-12-12T00:25:57.247Z,4.00
2018-12-12T00:28:25.664Z,4.53
2018-12-12T00:30:54.168Z,4.60
2018-12-12T00:33:22.568Z,4.23
2018-12-12T00:35:50.957Z,4.33
2018-12-12T00:38:19.364Z,4.83
2018-12-12T00:40:47.752Z,4.23
2018-12-12T00:43:16.187Z,4.80
2018-12-12T00:45:44.620Z,4.30
2018-12-12T00:48:13.017Z,4.20
2018-12-12T00:50:41.512Z,4.47
2018-12-12T00:53:09.900Z,3.93
2018-12-12T00:55:38.288Z,4.63
2018-12-12T00:58:06.692Z,4.90
2018-12-12T01:00:35.068Z,4.50
2018-12-12T01:03:05.187Z,4.57
2018-12-12T01:05:33.680Z,4.60
2018-12-12T01:08:05.425Z,4.63
2018-12-12T01:10:33.800Z,4.20
2018-12-12T01:13:06.044Z,4.90
2018-12-12T01:15:34.432Z,4.90
2018-12-12T01:18:06.222Z,5.17
2018-12-12T01:20:34.594Z,4.27
2018-12-12T01:23:06.108Z,4.17
2018-12-12T01:25:34.491Z,4.60
2018-12-12T01:28:06.141Z,4.60
2018-12-12T01:30:34.516Z,4.50
2018-12-12T01:33:08.123Z,4.23
2018-12-12T01:35:36.499Z,4.90
2018-12-12T01:38:05.074Z,5.00
2018-12-12T01:40:33.461Z,4.70
2018-12-12T01:43:04.159Z,4.63
2018-12-12T01:45:32.694Z,4.60
2018-12-12T01:48:03.685Z,4.07
2018-12-12T01:50:32.107Z,4.43
2018-12-12T01:53:00.484Z,4.67
2018-12-12T01:55:28.905Z,4.47
2018-12-12T01:57:57.300Z,4.87
2018-12-12T02:00:25.732Z,5.40
2018-12-12T02:02:54.361Z,4.73
2018-12-12T02:05:22.755Z,5.13
2018-12-12T02:07:51.440Z,4.50
2018-12-12T02:10:19.980Z,5.20
2018-12-12T02:12:58.295Z,5.10
2018-12-12T02:15:26.704Z,4.97
2018-12-12T02:17:55.081Z,4.67
2018-12-12T02:20:23.467Z,5.10
2018-12-12T02:22:51.896Z,5.27
2018-12-12T02:25:20.276Z,5.23
2018-12-12T02:27:48.676Z,4.90
2018-12-12T02:30:17.092Z,4.77
2018-12-12T02:32:45.464Z,5.00
2018-12-12T02:35:13.888Z,5.13
2018-12-12T02:37:42.274Z,5.30
2018-12-12T02:40:10.957Z,5.27
2018-12-12T02:42:39.520Z,5.53
2018-12-12T02:45:08.051Z,5.57
2018-12-12T02:47:36.536Z,4.40
2018-12-12T02:50:05.522Z,5.23
2018-12-12T02:52:33.920Z,5.03
2018-12-12T02:55:04.602Z,5.23
2018-12-12T02:57:32.993Z,4.50
2018-12-12T03:00:04.165Z,4.90
2018-12-12T03:02:32.859Z,4.83
2018-12-12T03:05:03.690Z,4.70
2018-12-12T03:07:32.173Z,4.50
2018-12-12T03:10:00.604Z,4.83
2018-12-12T03:12:28.981Z,5.30
2018-12-12T03:14:57.385Z,4.60
2018-12-12T03:17:25.762Z,4.73
2018-12-12T03:19:54.177Z,4.57
2018-12-12T03:22:22.571Z,4.50
2018-12-12T03:24:51.009Z,3.80
2018-12-12T03:27:19.390Z,4.40
2018-12-12T03:29:47.776Z,4.20
2018-12-12T03:32:16.183Z,4.10
2018-12-12T03:34:44.691Z,4.40
2018-12-12T03:37:13.108Z,4.77
2018-12-12T03:39:42.430Z,4.60
2018-12-12T03:42:11.366Z,4.53
2018-12-12T03:44:39.809Z,4.80
2018-12-12T03:47:08.360Z,4.83
2018-12-12T03:54:44.286Z,4.67
2018-12-12T03:57:12.658Z,5.97
2018-12-12T03:59:41.069Z,4.67
2018-12-12T04:02:09.516Z,5.00
2018-12-12T04:04:37.897Z,4.53
2018-12-12T04:07:06.320Z,4.70
2018-12-12T04:09:34.708Z,4.70
2018-12-12T04:12:05.425Z,4.17
2018-12-12T04:14:33.800Z,5.20
2018-12-12T04:17:07.853Z,4.70
2018-12-12T04:19:36.248Z,4.37
2018-12-12T04:22:05.164Z,4.03
2018-12-12T04:24:33.974Z,4.67
2018-12-12T04:27:04.376Z,4.47
2018-12-12T04:29:32.773Z,5.60
2018-12-12T04:32:03.804Z,4.80
2018-12-12T04:34:32.180Z,5.30
2018-12-12T04:37:00.559Z,5.00
2018-12-12T04:39:28.974Z,5.10
2018-12-12T04:41:58.729Z,5.40
2018-12-12T04:44:27.280Z,5.57
2018-12-12T04:46:55.752Z,5.73
2018-12-12T04:49:24.389Z,4.73
2018-12-12T04:51:52.764Z,5.80
2018-12-12T04:54:21.181Z,5.47
2018-12-12T04:56:49.588Z,5.37
2018-12-12T04:59:18.312Z,5.40
2018-12-12T05:01:46.735Z,6.40
2018-12-12T05:04:15.123Z,4.67
2018-12-12T05:06:43.535Z,6.03
2018-12-12T05:09:11.958Z,5.97
2018-12-12T05:11:40.373Z,5.87
2018-12-12T05:14:08.780Z,6.43
2018-12-12T05:16:37.184Z,5.87
2018-12-12T05:19:05.576Z,6.60
2018-12-12T05:21:33.988Z,5.90
2018-12-12T05:24:04.656Z,6.30
2018-12-12T05:26:33.073Z,6.73
2018-12-12T05:29:03.724Z,7.83
2018-12-12T05:31:32.132Z,6.57
2018-12-12T05:34:00.515Z,6.73
2018-12-12T05:36:28.901Z,6.57
2018-12-12T05:38:57.325Z,6.80
2018-12-12T05:41:25.943Z,7.23
2018-12-12T05:43:57.632Z,7.13
2018-12-12T05:46:24.716Z,6.30
2018-12-12T05:48:53.205Z,7.10
2018-12-12T05:51:21.599Z,6.40
2018-12-12T05:53:50.104Z,6.33
2018-12-12T05:56:18.551Z,7.30
2018-12-12T05:58:46.936Z,6.93
2018-12-12T06:01:15.427Z,6.70
2018-12-12T06:03:43.840Z,7.97
2018-12-12T06:06:12.571Z,6.87
2018-12-12T06:08:40.963Z,7.50
2018-12-12T06:11:09.352Z,7.87
2018-12-12T06:13:37.759Z,7.17
2018-12-12T06:16:06.151Z,7.57
2018-12-12T06:18:34.567Z,6.77
2018-12-12T06:21:07.459Z,8.67
2018-12-12T06:23:35.888Z,7.47
2018-12-12T06:26:05.631Z,7.20
2018-12-12T06:28:34.015Z,8.17
2018-12-12T06:31:05.340Z,7.43
2018-12-12T06:33:33.721Z,7.97
2018-12-12T06:36:05.614Z,7.53
2018-12-12T06:38:34.008Z,8.63
2018-12-12T06:41:05.545Z,7.67
2018-12-12T06:43:33.936Z,7.97
2018-12-12T06:46:05.136Z,8.47
2018-12-12T06:48:33.567Z,8.27
2018-12-12T06:51:04.572Z,11.67
2018-12-12T06:53:33.303Z,8.40
2018-12-12T06:58:35.741Z,8.53
2018-12-12T07:01:06.048Z,9.10
2018-12-12T07:03:34.545Z,7.60
2018-12-12T07:06:05.901Z,8.83
2018-12-12T07:08:34.278Z,8.83
2018-12-12T07:11:05.551Z,9.17
2018-12-12T07:13:35.882Z,8.30
2018-12-12T07:16:06.144Z,8.23
2018-12-12T07:18:34.547Z,8.27
2018-12-12T07:21:05.855Z,8.70
2018-12-12T07:23:34.247Z,8.97
2018-12-12T07:26:05.023Z,9.40
2018-12-12T07:28:33.401Z,8.83
2018-12-12T07:31:04.453Z,9.77
2018-12-12T07:33:32.829Z,8.50
2018-12-12T07:36:03.581Z,9.90
2018-12-12T07:38:31.975Z,9.80
2018-12-12T07:41:00.388Z,9.70
2018-12-12T07:43:28.762Z,10.10
2018-12-12T07:45:57.209Z,9.57
2018-12-12T07:48:25.637Z,9.37
2018-12-12T07:50:54.062Z,10.00
2018-12-12T07:53:22.467Z,9.67
2018-12-12T07:55:51.108Z,10.13
2018-12-12T07:58:19.492Z,9.03
2018-12-12T08:00:47.928Z,9.63
2018-12-12T08:03:16.310Z,9.17
2018-12-12T08:05:44.724Z,10.07
2018-12-12T08:08:13.113Z,10.77
2018-12-12T08:10:42.132Z,9.30
2018-12-12T08:13:10.516Z,9.57
2018-12-12T08:15:38.917Z,10.27
2018-12-12T08:18:07.360Z,10.33
2018-12-12T08:20:35.750Z,10.27
2018-12-12T08:23:05.196Z,10.87
2018-12-12T08:25:34.367Z,10.47
2018-12-12T08:28:05.405Z,9.87
2018-12-12T08:30:33.800Z,10.07
2018-12-12T08:33:10.943Z,9.17
2018-12-12T08:35:35.033Z,10.20
2018-12-12T08:38:05.186Z,10.40
2018-12-12T08:40:33.623Z,10.30
2018-12-12T08:43:05.404Z,11.73
2018-12-12T08:45:33.804Z,10.07
2018-12-12T08:48:05.343Z,10.63
2018-12-12T08:50:33.744Z,11.57
2018-12-12T08:53:05.921Z,9.87
2018-12-12T08:55:34.344Z,10.50
2018-12-12T08:58:05.285Z,10.83
2018-12-12T09:00:33.668Z,10.80
2018-12-12T09:03:04.700Z,11.10
2018-12-12T09:05:33.327Z,10.80
2018-12-12T09:08:03.652Z,11.10
2018-12-12T09:10:32.065Z,10.37
2018-12-12T09:13:00.455Z,11.00
2018-12-12T09:15:29.156Z,11.00
2018-12-12T09:17:57.549Z,10.80
2018-12-12T09:20:25.960Z,10.67
2018-12-12T09:22:54.371Z,11.17
2018-12-12T09:25:22.800Z,10.93
2018-12-12T09:27:51.192Z,10.27
2018-12-12T09:30:19.952Z,11.20
2018-12-12T09:32:48.392Z,10.63
2018-12-12T09:35:16.809Z,11.23
2018-12-12T09:37:45.204Z,10.37
2018-12-12T09:40:13.637Z,11.03
2018-12-12T09:42:42.030Z,10.00
2018-12-12T09:45:10.568Z,10.97
2018-12-12T09:47:39.210Z,10.90
2018-12-12T09:50:07.845Z,11.17
2018-12-12T09:52:36.272Z,12.07
2018-12-12T09:55:05.971Z,11.30
2018-12-12T09:57:34.356Z,12.07
2018-12-12T10:00:06.096Z,12.43
2018-12-12T10:02:34.540Z,11.53
2018-12-12T10:05:06.231Z,11.07
2018-12-12T10:07:34.665Z,11.30
2018-12-12T10:10:05.963Z,11.23
2018-12-12T10:12:34.415Z,11.50
2018-12-12T10:15:05.506Z,10.67
2018-12-12T10:17:33.912Z,11.43
2018-12-12T10:20:05.460Z,10.90
2018-12-12T10:22:33.851Z,10.93
2018-12-12T10:25:04.660Z,11.70
2018-12-12T10:27:33.082Z,12.00
2018-12-12T10:30:03.597Z,11.30
2018-12-12T10:32:32.008Z,12.23
2018-12-12T10:35:00.405Z,11.47
2018-12-12T10:37:28.836Z,12.17
2018-12-12T10:39:57.345Z,11.20
2018-12-12T10:42:25.824Z,10.97
2018-12-12T10:44:54.475Z,11.40
2018-12-12T10:47:22.971Z,11.03
2018-12-12T10:49:51.365Z,11.67
2018-12-12T10:52:19.777Z,11.43
2018-12-12T10:54:48.184Z,11.57
2018-12-12T10:57:16.608Z,10.87
2018-12-12T10:59:45.004Z,11.50
2018-12-12T11:02:18.894Z,11.60
2018-12-12T11:04:47.297Z,11.13
2018-12-12T11:07:15.747Z,11.67
2018-12-12T11:09:44.248Z,11.70
2018-12-12T11:12:12.645Z,10.73
2018-12-12T11:14:41.084Z,11.40
2018-12-12T11:17:09.495Z,11.30
2018-12-12T11:19:37.920Z,12.03
2018-12-12T11:22:06.316Z,11.20
2018-12-12T11:24:34.733Z,10.87
2018-12-12T11:27:05.204Z,11.10
2018-12-12T11:29:33.632Z,11.30
2018-12-12T11:32:04.665Z,11.20
2018-12-12T11:34:33.080Z,11.67
2018-12-12T11:37:03.634Z,11.73
2018-12-12T11:39:32.052Z,10.40
2018-12-12T11:42:00.426Z,11.43
2018-12-12T11:44:28.844Z,12.23
2018-12-12T11:46:58.033Z,11.80
2018-12-12T11:49:26.614Z,11.27
2018-12-12T11:51:54.999Z,12.40
2018-12-12T11:54:23.460Z,13.10
2018-12-12T11:56:51.877Z,11.77
2018-12-12T11:59:20.257Z,11.23
2018-12-12T12:01:48.692Z,12.33
2018-12-12T12:04:17.083Z,11.93
2018-12-12T12:06:45.512Z,12.17
2018-12-12T12:09:13.915Z,12.07
2018-12-12T12:11:42.339Z,11.43
2018-12-12T12:14:10.800Z,13.43
2018-12-12T12:16:39.247Z,12.70
2018-12-12T12:19:07.640Z,12.67
2018-12-12T12:21:36.089Z,12.50
2018-12-12T12:24:05.176Z,12.77
2018-12-12T12:26:33.825Z,12.10
2018-12-12T12:29:07.984Z,13.03
2018-12-12T12:31:36.607Z,11.83
2018-12-12T12:34:05.449Z,11.97
2018-12-12T12:36:33.835Z,12.53
2018-12-12T12:39:05.145Z,11.87
2018-12-12T12:41:33.524Z,11.63
2018-12-12T12:44:03.672Z,11.80
2018-12-12T12:46:32.134Z,12.47
2018-12-12T12:49:00.531Z,13.53
2018-12-12T12:51:28.960Z,12.33
2018-12-12T12:53:57.351Z,12.33
2018-12-12T12:56:25.790Z,11.67
2018-12-12T12:58:54.168Z,11.67
2018-12-12T13:01:22.608Z,11.20
2018-12-12T13:03:51.011Z,12.20
2018-12-12T13:06:19.452Z,11.60
2018-12-12T13:08:47.859Z,12.17
2018-12-12T13:11:16.297Z,12.00
2018-12-12T13:13:44.697Z,11.63
2018-12-12T13:16:13.263Z,11.50
2018-12-12T13:18:41.719Z,12.70
2018-12-12T13:21:10.159Z,13.53
2018-12-12T13:23:38.540Z,12.47
2018-12-12T13:26:07.337Z,11.50
2018-12-12T13:28:35.731Z,12.43
2018-12-12T13:31:06.556Z,11.47
2018-12-12T13:33:34.987Z,11.47
2018-12-12T13:36:06.023Z,12.87
2018-12-12T13:38:34.474Z,12.63
2018-12-12T13:41:07.566Z,12.00
2018-12-12T13:43:36.004Z,12.10
2018-12-12T13:46:04.980Z,13.10
2018-12-12T13:48:33.948Z,13.30
2018-12-12T13:51:04.747Z,11.87
2018-12-12T13:53:33.172Z,11.57
2018-12-12T13:56:05.067Z,12.33
2018-12-12T13:58:33.619Z,11.87
2018-12-12T14:01:06.887Z,12.10
2018-12-12T14:03:35.340Z,11.03
2018-12-12T14:06:05.145Z,12.10
2018-12-12T14:08:33.548Z,11.83
2018-12-12T14:11:05.181Z,12.30
2018-12-12T14:13:33.572Z,12.97
2018-12-12T14:16:03.683Z,12.40
2018-12-12T14:18:32.096Z,11.50
2018-12-12T14:21:00.841Z,11.50
2018-12-12T14:23:29.355Z,12.53
2018-12-12T14:25:58.603Z,11.20
2018-12-12T14:28:26.987Z,10.97
2018-12-12T14:30:55.381Z,10.83
2018-12-12T14:33:23.877Z,11.97
2018-12-12T14:35:52.330Z,11.23
2018-12-12T14:38:21.810Z,11.63
2018-12-12T14:40:50.260Z,11.40
2018-12-12T14:43:18.644Z,10.80
2018-12-12T14:45:47.072Z,12.30
2018-12-12T14:48:15.504Z,10.97
2018-12-12T14:50:43.944Z,12.33
2018-12-12T14:53:12.353Z,10.33
2018-12-12T14:55:40.736Z,11.57
2018-12-12T14:58:09.193Z,11.57
2018-12-12T15:00:37.840Z,11.03
2018-12-12T15:03:06.703Z,11.53
2018-12-12T15:05:35.180Z,10.90
2018-12-12T15:08:05.856Z,11.20
2018-12-12T15:10:34.248Z,10.87
2018-12-12T15:13:09.156Z,11.50
2018-12-12T15:15:37.544Z,12.23
2018-12-12T15:18:06.692Z,11.20
2018-12-12T15:20:35.115Z,10.13
2018-12-12T15:23:05.897Z,9.63
2018-12-12T15:25:35.800Z,9.27
2018-12-12T15:28:08.040Z,9.30
2018-12-12T15:30:36.432Z,8.97
2018-12-12T15:33:05.865Z,9.67
2018-12-12T15:35:34.612Z,10.17
2018-12-12T15:38:09.788Z,10.30
2018-12-12T15:40:38.220Z,10.23
2018-12-12T15:43:06.965Z,9.70
2018-12-12T15:45:35.636Z,10.33
2018-12-12T15:48:05.788Z,11.13
2018-12-12T15:50:34.181Z,10.43
2018-12-12T15:53:04.496Z,11.20
2018-12-12T15:55:32.896Z,11.67
2018-12-12T15:58:03.536Z,10.90
2018-12-12T16:00:32.247Z,10.63
2018-12-12T16:03:00.925Z,9.67
2018-12-12T16:05:29.308Z,9.70
2018-12-12T16:07:57.708Z,10.57
2018-12-12T16:10:26.254Z,10.30
2018-12-12T16:12:55.040Z,11.00
2018-12-12T16:15:23.763Z,10.50
2018-12-12T16:17:52.152Z,11.33
2018-12-12T16:20:20.588Z,11.33
2018-12-12T16:22:49.420Z,11.40
2018-12-12T16:25:18.869Z,11.23
2018-12-12T16:27:47.257Z,11.37
2018-12-12T16:30:15.897Z,11.17
2018-12-12T16:32:44.649Z,11.03
2018-12-12T16:35:13.069Z,11.23
2018-12-12T16:37:41.511Z,10.40
2018-12-12T16:40:11.808Z,11.07
2018-12-12T16:42:40.203Z,12.33
2018-12-12T16:45:08.872Z,11.67
2018-12-12T16:47:37.368Z,11.07
2018-12-12T16:50:07.195Z,11.13
2018-12-12T16:52:35.688Z,11.47
2018-12-12T16:55:07.537Z,12.07
2018-12-12T16:57:35.999Z,11.30
2018-12-12T17:00:08.200Z,11.17
2018-12-12T17:02:36.649Z,10.90
2018-12-12T17:05:06.600Z,11.20
2018-12-12T17:07:35.430Z,12.57
2018-12-12T17:10:10.548Z,10.67
2018-12-12T17:12:37.808Z,11.40
2018-12-12T17:15:07.493Z,11.10
2018-12-12T17:17:35.969Z,10.50
2018-12-12T17:20:08.845Z,10.07
2018-12-12T17:22:37.343Z,10.77
2018-12-12T17:25:06.080Z,9.23
2018-12-12T17:27:34.617Z,10.13
2018-12-12T17:30:12.756Z,10.53
2018-12-12T17:32:41.161Z,10.40
2018-12-12T17:35:10.124Z,9.27
2018-12-12T17:37:38.540Z,10.27
2018-12-12T17:40:07.305Z,10.10
2018-12-12T17:42:35.704Z,8.63
2018-12-12T17:45:09.296Z,9.40
2018-12-12T17:47:37.764Z,8.83
2018-12-12T17:50:07.204Z,8.07
2018-12-12T17:52:35.630Z,8.67
2018-12-12T17:55:06.294Z,6.63
2018-12-12T17:57:34.767Z,6.27
2018-12-12T18:00:06.190Z,5.97
2018-12-12T18:02:34.628Z,6.10
2018-12-12T18:05:05.983Z,5.67
2018-12-12T18:07:34.668Z,6.13
2018-12-12T18:10:05.525Z,6.00
2018-12-12T18:12:33.913Z,6.17
2018-12-12T18:15:04.650Z,5.17
2018-12-12T18:17:33.085Z,5.63
2018-12-12T18:20:03.669Z,6.33
2018-12-12T18:22:32.552Z,5.33
2018-12-12T18:25:04.944Z,5.97
2018-12-12T18:27:33.352Z,5.47
2018-12-12T18:30:04.231Z,5.33
2018-12-12T18:32:32.642Z,5.30
2018-12-12T18:35:03.674Z,5.70
2018-12-12T18:37:32.105Z,6.03
2018-12-12T18:40:00.592Z,6.23
2018-12-12T18:42:29.124Z,5.30
2018-12-12T18:44:57.807Z,5.37
2018-12-12T18:47:26.197Z,4.90
2018-12-12T18:49:54.964Z,4.83
2018-12-12T18:52:23.386Z,4.80
2018-12-12T18:54:51.766Z,4.13
2018-12-12T18:57:20.262Z,4.50
2018-12-12T18:59:48.666Z,4.43
2018-12-12T19:02:17.059Z,4.13
2018-12-12T19:04:45.502Z,4.40
2018-12-12T19:07:14.007Z,4.73
2018-12-12T19:09:42.428Z,4.83
2018-12-12T19:12:10.824Z,4.87
2018-12-12T19:14:43.387Z,4.87
2018-12-12T19:17:11.876Z,5.50
2018-12-12T19:19:40.275Z,4.83
2018-12-12T19:22:08.665Z,4.77
2018-12-12T19:24:37.432Z,4.60
2018-12-12T19:27:05.836Z,5.30
2018-12-12T19:29:34.269Z,4.67
2018-12-12T19:32:04.597Z,5.00
2018-12-12T19:34:33.113Z,5.37
2018-12-12T19:37:03.599Z,4.50
2018-12-12T19:39:32.005Z,4.83
2018-12-12T19:42:00.442Z,4.60
2018-12-12T19:44:28.884Z,4.97
2018-12-12T19:46:57.338Z,4.90
2018-12-12T19:49:25.952Z,4.90
2018-12-12T19:51:54.350Z,4.70
2018-12-12T19:54:22.730Z,4.80
2018-12-12T19:56:51.415Z,5.07
2018-12-12T19:59:20.070Z,4.90
2018-12-12T20:01:48.511Z,5.00
2018-12-12T20:04:16.908Z,5.03
2018-12-12T20:06:45.359Z,5.40
2018-12-12T20:09:13.787Z,5.20
2018-12-12T20:11:42.245Z,4.83
2018-12-12T20:14:10.637Z,5.70
2018-12-12T20:16:39.274Z,5.30
2018-12-12T20:19:07.739Z,4.97
2018-12-12T20:21:36.154Z,5.50
2018-12-12T20:24:05.828Z,5.30
2018-12-12T20:26:34.340Z,5.50
2018-12-12T20:29:06.584Z,5.37
2018-12-12T20:31:35.028Z,5.20
2018-12-12T20:34:05.745Z,5.50
2018-12-12T20:36:34.162Z,5.63
2018-12-12T20:39:05.428Z,6.73
2018-12-12T20:41:33.836Z,6.57
2018-12-12T20:44:08.833Z,7.07
2018-12-12T20:46:37.275Z,5.53
2018-12-12T20:49:06.544Z,5.73
2018-12-12T20:51:34.940Z,5.67
2018-12-12T20:54:05.785Z,5.87
2018-12-12T20:56:34.180Z,6.17
2018-12-12T20:59:04.497Z,6.10
2018-12-12T21:01:32.893Z,6.60
2018-12-12T21:04:05.173Z,6.70
2018-12-12T21:06:33.563Z,6.47
2018-12-12T21:09:04.816Z,6.40
2018-12-12T21:11:33.409Z,7.33
2018-12-12T21:14:04.181Z,7.10
2018-12-12T21:16:32.571Z,6.90
2018-12-12T21:19:04.152Z,7.20
2018-12-12T21:21:32.881Z,6.63
2018-12-12T21:24:03.465Z,6.20
2018-12-12T21:26:31.857Z,6.83
2018-12-12T21:29:00.552Z,6.67
2018-12-12T21:31:28.956Z,6.97
2018-12-12T21:33:57.352Z,7.70
2018-12-12T21:36:26.107Z,7.20
2018-12-12T21:38:54.587Z,7.30
2018-12-12T21:41:23.052Z,7.07
2018-12-12T21:43:51.485Z,6.20
2018-12-12T21:46:19.872Z,6.90
2018-12-12T21:48:48.360Z,7.23
2018-12-12T21:51:16.833Z,6.47
2018-12-12T21:53:45.237Z,7.10
2018-12-12T21:56:13.744Z,6.53
2018-12-12T21:58:42.160Z,6.40
2018-12-12T22:01:10.548Z,6.97
2018-12-12T22:03:38.960Z,7.10
2018-12-12T22:06:07.656Z,7.43
2018-12-12T22:08:36.316Z,7.33
2018-12-12T22:11:06.435Z,6.27
2018-12-12T22:13:34.836Z,6.70
2018-12-12T22:16:05.256Z,7.23
2018-12-12T22:18:33.668Z,7.10
2018-12-12T22:21:05.827Z,7.13
2018-12-12T22:23:34.239Z,6.67
2018-12-12T22:26:04.439Z,6.97
2018-12-12T22:28:32.876Z,7.67
2018-12-12T22:31:04.425Z,7.50
2018-12-12T22:33:32.849Z,7.67
2018-12-12T22:36:03.634Z,6.73
2018-12-12T22:38:32.454Z,7.13
2018-12-12T22:41:00.937Z,6.53
2018-12-12T22:43:29.356Z,6.47
2018-12-12T22:45:57.873Z,6.67
2018-12-12T22:48:26.253Z,7.27
2018-12-12T22:50:54.673Z,6.50
2018-12-12T22:53:23.106Z,5.93
2018-12-12T22:55:51.533Z,6.57
2018-12-12T22:58:19.944Z,6.17
2018-12-12T23:00:54.084Z,6.37
2018-12-12T23:03:22.491Z,6.70
2018-12-12T23:05:50.883Z,6.20
2018-12-12T23:08:19.292Z,6.50
2018-12-12T23:10:47.684Z,6.00
2018-12-12T23:13:16.100Z,7.10
2018-12-12T23:15:44.475Z,6.00
2018-12-12T23:18:12.887Z,6.00
2018-12-12T23:20:42.231Z,6.60
2018-12-12T23:23:10.843Z,6.13
2018-12-12T23:25:39.236Z,5.83
2018-12-12T23:28:07.684Z,6.10
2018-12-12T23:30:36.068Z,6.20
2018-12-12T23:33:05.028Z,6.20
2018-12-12T23:35:33.421Z,6.30
2018-12-12T23:38:03.661Z,7.00
2018-12-12T23:40:32.041Z,6.37
2018-12-12T23:43:00.471Z,6.63
2018-12-12T23:45:29.390Z,6.37
2018-12-12T23:47:57.780Z,6.63
2018-12-12T23:50:26.180Z,6.43
2018-12-12T23:52:54.847Z,7.00
2018-12-12T23:55:29.903Z,5.97
2018-12-12T23:57:58.658Z,7.40
